Time;durP1;ratioP1;P1;durP2;ratioP2;P2;SDS_P1;SDS_P2;PMS_P1;PMS_P2;Temp;Humidity;BMP_temperature;BMP_pressure;BME280_temperature;BME280_humidity;BME280_pressure;Samples;Min_cycle;Max_cycle;Signal;HPM_P1;HPM_P2
2020/12/12 00:01:16;;;;;;;22.87;18.57;;;3.50;99.90;;;;;;5071735;28;20745;-37
2020/12/12 00:03:42;;;;;;;26.20;17.87;;;3.50;99.90;;;;;;5071749;28;20278;-37
2020/12/12 00:06:09;;;;;;;25.27;19.33;;;3.50;99.90;;;;;;5071640;28;20242;-37
2020/12/12 00:08:37;;;;;;;28.63;18.60;;;3.50;99.90;;;;;;5071591;28;20770;-37
2020/12/12 00:11:04;;;;;;;24.60;18.53;;;3.50;99.90;;;;;;5071239;28;20226;-38
2020/12/12 00:13:31;;;;;;;25.05;18.08;;;3.50;99.90;;;;;;5071431;28;20248;-37
2020/12/12 00:15:58;;;;;;;24.23;18.83;;;3.50;99.90;;;;;;5071504;28;20205;-37
2020/12/12 00:18:24;;;;;;;23.87;17.77;;;3.50;99.90;;;;;;5071772;28;20266;-37
2020/12/12 00:20:51;;;;;;;21.20;15.93;;;3.70;99.90;;;;;;5071522;28;20653;-37
2020/12/12 00:23:17;;;;;;;23.77;16.97;;;3.50;99.90;;;;;;5071349;28;20229;-37
2020/12/12 00:25:47;;;;;;;24.00;17.40;;;3.50;99.90;;;;;;5071127;28;20305;-37
2020/12/12 00:28:23;;;;;;;22.93;17.33;;;3.50;99.90;;;;;;5070491;28;20677;-38
2020/12/12 00:30:50;;;;;;;20.85;16.60;;;3.60;99.90;;;;;;5071270;28;20223;-37
2020/12/12 00:33:16;;;;;;;25.23;16.87;;;3.60;99.90;;;;;;5071270;28;20236;-37
2020/12/12 00:35:43;;;;;;;21.48;16.48;;;3.60;99.90;;;;;;5077338;28;20316;-37
2020/12/12 00:38:09;;;;;;;26.45;18.52;;;3.60;99.90;;;;;;5073152;28;20291;-38
2020/12/12 00:40:36;;;;;;;26.80;18.33;;;3.60;99.90;;;;;;5071890;28;20194;-37
2020/12/12 00:43:02;;;;;;;20.53;15.60;;;3.60;99.90;;;;;;5071440;28;20198;-37
2020/12/12 00:45:30;;;;;;;22.07;18.27;;;3.60;99.90;;;;;;5071316;28;20206;-36
2020/12/12 00:47:56;;;;;;;21.37;16.53;;;3.60;99.90;;;;;;5071053;28;20203;-37
2020/12/12 00:50:23;;;;;;;24.25;17.55;;;3.60;99.90;;;;;;5053166;28;20238;-37
2020/12/12 00:52:50;;;;;;;21.27;16.83;;;3.60;99.90;;;;;;5071175;28;20756;-37
2020/12/12 00:55:17;;;;;;;22.67;17.90;;;3.70;99.90;;;;;;5071672;28;20229;-36
2020/12/12 00:57:45;;;;;;;22.70;15.43;;;3.70;99.90;;;;;;5053096;28;20205;-37
2020/12/12 01:00:11;;;;;;;20.57;15.80;;;3.70;99.90;;;;;;5071335;28;20245;-36
2020/12/12 01:02:39;;;;;;;22.20;16.57;;;3.70;99.90;;;;;;5070894;28;20577;-37
2020/12/12 01:05:06;;;;;;;22.17;17.33;;;3.70;99.90;;;;;;5070761;28;20221;-36
2020/12/12 01:07:32;;;;;;;24.47;16.80;;;3.80;99.90;;;;;;5070361;28;20853;-36
2020/12/12 01:09:59;;;;;;;24.07;17.10;;;3.80;99.90;;;;;;5070604;28;20198;-37
2020/12/12 01:12:25;;;;;;;24.80;17.87;;;3.80;99.90;;;;;;5070395;28;20257;-36
2020/12/12 01:14:52;;;;;;;28.37;19.03;;;3.80;99.90;;;;;;5071042;28;20205;-37
2020/12/12 01:17:19;;;;;;;25.43;18.20;;;3.80;99.90;;;;;;5070293;28;20286;-38
2020/12/12 01:19:47;;;;;;;21.87;16.07;;;3.70;99.90;;;;;;5070033;28;20260;-37
2020/12/12 01:22:14;;;;;;;22.58;17.52;;;3.70;99.90;;;;;;5070352;28;20305;-37
2020/12/12 01:24:40;;;;;;;26.00;17.83;;;3.70;99.90;;;;;;5070438;28;20229;-37
2020/12/12 01:27:09;;;;;;;22.87;18.43;;;3.80;99.90;;;;;;5052460;28;20235;-37
2020/12/12 01:29:36;;;;;;;26.83;18.77;;;3.70;99.90;;;;;;5070473;28;20726;-36
2020/12/12 01:32:02;;;;;;;27.52;18.90;;;3.70;99.90;;;;;;5070179;28;20319;-37
2020/12/12 01:34:29;;;;;;;25.03;19.17;;;3.70;99.90;;;;;;5075567;28;20229;-37
2020/12/12 01:36:56;;;;;;;23.63;16.63;;;3.70;99.90;;;;;;5070274;28;20252;-37
2020/12/12 01:39:23;;;;;;;24.57;18.63;;;3.80;99.90;;;;;;5070533;28;20607;-37
2020/12/12 01:41:53;;;;;;;32.73;19.23;;;3.70;99.90;;;;;;5072092;28;20442;-37
2020/12/12 01:44:20;;;;;;;28.57;20.07;;;3.70;99.90;;;;;;5085010;28;20299;-38
2020/12/12 01:46:48;;;;;;;22.43;18.40;;;3.70;99.90;;;;;;5093822;28;20224;-40
2020/12/12 01:49:15;;;;;;;26.20;20.57;;;3.70;99.90;;;;;;5093832;28;20190;-40
2020/12/12 01:51:43;;;;;;;27.30;20.33;;;3.70;99.90;;;;;;5095680;28;20749;-42
2020/12/12 01:54:10;;;;;;;27.70;20.37;;;3.70;99.90;;;;;;5098211;28;20202;-41
2020/12/12 01:56:38;;;;;;;27.17;19.93;;;3.70;99.90;;;;;;5092568;28;20201;-39
2020/12/12 01:59:04;;;;;;;27.67;18.93;;;3.70;99.90;;;;;;5076706;28;20237;-37
2020/12/12 02:01:37;;;;;;;26.10;18.97;;;3.70;99.90;;;;;;5073641;28;20255;-36
2020/12/12 02:04:06;;;;;;;26.30;20.83;;;3.70;99.90;;;;;;5073513;28;20698;-39
2020/12/12 02:06:35;;;;;;;25.60;18.67;;;3.70;99.90;;;;;;5073083;28;20252;-37
2020/12/12 02:09:02;;;;;;;28.20;19.80;;;3.70;99.90;;;;;;5073264;28;20230;-36
2020/12/12 02:11:30;;;;;;;25.57;18.97;;;3.70;99.90;;;;;;5073126;28;20215;-37
2020/12/12 02:13:57;;;;;;;24.10;19.47;;;3.70;99.90;;;;;;5073189;28;20202;-39
2020/12/12 02:16:24;;;;;;;26.17;19.67;;;3.70;99.90;;;;;;5073517;28;20209;-36
2020/12/12 02:18:51;;;;;;;29.67;21.53;;;3.70;99.90;;;;;;5072936;28;20203;-38
2020/12/12 02:21:17;;;;;;;28.70;19.80;;;3.70;99.90;;;;;;5073249;28;20223;-37
2020/12/12 02:23:45;;;;;;;25.27;19.17;;;3.70;99.90;;;;;;5055477;28;20204;-36
2020/12/12 02:26:11;;;;;;;26.27;19.43;;;3.70;99.90;;;;;;5056798;28;20199;-39
2020/12/12 02:28:46;;;;;;;25.83;19.53;;;3.70;99.90;;;;;;5077827;28;20194;-37
2020/12/12 02:31:13;;;;;;;24.93;20.33;;;3.80;99.90;;;;;;5073415;28;20224;-37
2020/12/12 02:33:39;;;;;;;30.27;19.87;;;3.80;99.90;;;;;;5073065;28;20234;-38
2020/12/12 02:36:07;;;;;;;26.40;20.05;;;3.70;99.90;;;;;;5073396;28;20203;-37
2020/12/12 02:38:33;;;;;;;25.20;19.23;;;3.70;99.90;;;;;;5072850;28;20581;-38
2020/12/12 02:41:02;;;;;;;25.63;19.27;;;3.80;99.90;;;;;;5073251;28;20587;-37
2020/12/12 02:43:28;;;;;;;25.37;20.93;;;3.80;99.90;;;;;;5073118;28;20258;-36
2020/12/12 02:45:55;;;;;;;28.63;21.97;;;4.00;99.90;;;;;;5067071;28;20200;-36
2020/12/12 02:48:21;;;;;;;30.50;21.47;;;3.80;99.90;;;;;;5063820;28;20399;-37
2020/12/12 02:50:48;;;;;;;26.33;20.17;;;3.80;99.90;;;;;;5066374;28;20313;-36
2020/12/12 02:53:15;;;;;;;24.63;19.10;;;3.90;99.90;;;;;;5065432;28;20693;-36
2020/12/12 02:55:41;;;;;;;23.97;18.27;;;3.90;99.90;;;;;;5064060;28;20294;-39
2020/12/12 02:58:09;;;;;;;24.55;18.77;;;3.80;99.90;;;;;;5044920;28;20217;-37
2020/12/12 03:00:35;;;;;;;25.83;19.47;;;3.70;99.90;;;;;;5062233;28;20191;-37
2020/12/12 03:03:01;;;;;;;23.40;19.30;;;3.80;99.90;;;;;;5061899;28;20604;-37
2020/12/12 03:05:28;;;;;;;25.73;19.50;;;3.70;99.90;;;;;;5063142;28;20210;-37
2020/12/12 03:07:54;;;;;;;26.87;19.73;;;3.80;99.90;;;;;;5061364;28;20289;-36
2020/12/12 03:10:21;;;;;;;25.20;19.30;;;3.80;99.90;;;;;;5061422;28;20237;-36
2020/12/12 03:12:47;;;;;;;24.83;19.43;;;3.90;99.90;;;;;;5062987;28;20223;-39
2020/12/12 03:15:15;;;;;;;26.13;20.23;;;3.90;99.90;;;;;;5044534;28;20194;-37
2020/12/12 03:17:41;;;;;;;24.50;18.30;;;3.90;99.90;;;;;;5062020;28;20203;-36
2020/12/12 03:20:08;;;;;;;28.45;21.15;;;3.90;99.90;;;;;;5060173;28;20290;-36
2020/12/12 03:22:35;;;;;;;28.30;20.53;;;3.80;99.90;;;;;;5062451;28;20613;-38
2020/12/12 03:25:02;;;;;;;29.77;21.33;;;3.90;99.90;;;;;;5060440;28;20572;-36
2020/12/12 03:27:28;;;;;;;28.23;21.20;;;3.90;99.90;;;;;;5051335;28;20228;-36
2020/12/12 03:29:55;;;;;;;31.07;21.87;;;3.90;99.90;;;;;;5042182;28;20223;-36
2020/12/12 03:32:22;;;;;;;31.53;23.03;;;3.90;99.90;;;;;;5051197;28;20632;-36
2020/12/12 03:34:49;;;;;;;31.67;22.87;;;3.90;99.90;;;;;;5051255;28;20272;-37
2020/12/12 03:37:15;;;;;;;33.07;24.43;;;4.00;99.90;;;;;;5056428;28;20203;-37
2020/12/12 03:39:42;;;;;;;26.83;23.03;;;4.00;99.90;;;;;;5062082;28;20627;-37
2020/12/12 03:42:09;;;;;;;31.37;24.33;;;4.00;99.90;;;;;;5060164;28;20261;-36
2020/12/12 03:44:36;;;;;;;32.17;23.93;;;3.90;99.90;;;;;;5061334;28;20198;-36
2020/12/12 03:47:02;;;;;;;31.90;23.57;;;3.90;99.90;;;;;;5062115;28;20227;-36
2020/12/12 03:49:30;;;;;;;30.70;23.13;;;4.00;99.90;;;;;;5059365;28;20612;-36
2020/12/12 03:51:56;;;;;;;29.93;21.10;;;4.00;99.90;;;;;;5060610;28;20228;-37
2020/12/12 03:54:23;;;;;;;28.63;21.83;;;3.90;99.90;;;;;;5061867;28;20249;-36
2020/12/12 03:56:49;;;;;;;32.03;22.07;;;4.00;99.90;;;;;;5059829;28;20648;-36
2020/12/12 03:59:16;;;;;;;32.37;23.27;;;3.90;99.90;;;;;;5061232;28;20300;-37
2020/12/12 04:01:42;;;;;;;29.83;22.80;;;3.90;99.90;;;;;;5068748;28;20222;-36
2020/12/12 04:04:09;;;;;;;31.47;23.30;;;4.00;99.90;;;;;;5070875;28;20272;-38
2020/12/12 04:06:36;;;;;;;33.27;23.80;;;3.90;99.90;;;;;;5071382;28;20211;-36
2020/12/12 04:09:03;;;;;;;34.37;23.77;;;4.00;99.90;;;;;;5074760;28;20301;-37
2020/12/12 04:11:30;;;;;;;29.20;23.13;;;4.00;99.90;;;;;;5074872;28;20218;-37
2020/12/12 04:13:56;;;;;;;31.33;24.17;;;4.10;99.90;;;;;;5075015;28;20226;-37
2020/12/12 04:16:23;;;;;;;32.58;23.23;;;4.00;99.90;;;;;;5074487;28;20621;-37
2020/12/12 04:18:49;;;;;;;32.60;25.67;;;3.90;99.90;;;;;;5070274;28;20194;-37
2020/12/12 04:21:16;;;;;;;34.93;24.77;;;3.90;99.90;;;;;;5075062;28;20631;-37
2020/12/12 04:23:44;;;;;;;32.10;23.40;;;3.90;99.90;;;;;;5070989;28;20187;-36
2020/12/12 04:26:11;;;;;;;34.13;26.05;;;3.90;99.90;;;;;;5071398;28;20221;-37
2020/12/12 04:28:38;;;;;;;28.50;23.50;;;4.00;99.90;;;;;;5071069;28;20198;-36
2020/12/12 04:31:05;;;;;;;33.60;23.58;;;4.00;99.90;;;;;;5072762;28;20218;-37
2020/12/12 04:33:32;;;;;;;31.93;22.13;;;4.00;99.90;;;;;;5072312;28;20222;-36
2020/12/12 04:35:59;;;;;;;32.30;23.87;;;3.90;99.90;;;;;;5072536;28;20194;-38
2020/12/12 04:38:26;;;;;;;31.53;24.03;;;4.00;99.90;;;;;;5084450;28;20233;-37
2020/12/12 04:40:54;;;;;;;31.47;23.70;;;3.90;99.90;;;;;;5071464;28;20688;-37
2020/12/12 04:43:21;;;;;;;30.33;23.20;;;3.90;99.90;;;;;;5072280;28;20270;-36
2020/12/12 04:45:49;;;;;;;29.93;22.63;;;4.00;99.90;;;;;;5074407;28;20209;-37
2020/12/12 04:48:16;;;;;;;36.23;24.53;;;4.10;99.90;;;;;;5073815;28;20305;-37
2020/12/12 04:50:43;;;;;;;33.90;23.83;;;4.10;99.90;;;;;;5072508;28;20209;-36
2020/12/12 04:53:14;;;;;;;34.50;24.03;;;4.10;99.90;;;;;;5071927;28;20225;-39
2020/12/12 04:55:44;;;;;;;35.57;23.90;;;4.00;99.90;;;;;;5072261;28;20263;-36
2020/12/12 04:58:15;;;;;;;36.07;25.77;;;4.00;99.90;;;;;;5073418;28;20572;-36
2020/12/12 05:00:45;;;;;;;35.60;25.30;;;3.90;99.90;;;;;;5071109;28;20221;-37
2020/12/12 05:03:13;;;;;;;31.03;22.80;;;4.00;99.90;;;;;;5074938;28;20197;-37
2020/12/12 05:05:40;;;;;;;32.53;24.43;;;3.90;99.90;;;;;;5062655;22;20359;-78
2020/12/12 05:08:08;;;;;;;34.63;22.73;;;3.90;99.90;;;;;;5036729;28;20613;-76
2020/12/12 05:10:39;;;;;;;29.90;22.90;;;3.80;99.90;;;;;;5029868;28;20228;-77
2020/12/12 05:13:18;;;;;;;31.33;23.43;;;3.80;99.90;;;;;;5029500;28;20703;-78
2020/12/12 05:15:45;;;;;;;29.67;22.90;;;3.80;99.90;;;;;;5030548;28;20195;-77
2020/12/12 05:18:11;;;;;;;36.80;25.67;;;3.80;99.90;;;;;;5032859;28;20195;-77
2020/12/12 05:20:38;;;;;;;30.13;23.43;;;3.90;99.90;;;;;;5033885;28;20744;-77
2020/12/12 05:23:13;;;;;;;33.03;22.83;;;3.80;99.90;;;;;;5034364;28;20652;-77
2020/12/12 05:25:40;;;;;;;29.70;21.93;;;3.90;99.90;;;;;;5034221;28;20668;-78
2020/12/12 05:28:08;;;;;;;35.97;23.43;;;3.90;99.90;;;;;;5032967;28;20208;-77
2020/12/12 05:30:36;;;;;;;34.20;22.50;;;3.90;99.90;;;;;;5033578;28;20220;-77
2020/12/12 05:33:03;;;;;;;36.20;24.00;;;3.90;99.90;;;;;;5032175;28;20223;-77
2020/12/12 05:35:30;;;;;;;31.17;23.30;;;4.00;99.90;;;;;;5034261;28;20199;-77
2020/12/12 05:37:58;;;;;;;30.90;23.43;;;4.00;99.90;;;;;;5032714;28;20589;-78
2020/12/12 05:40:24;;;;;;;30.47;23.43;;;4.00;99.90;;;;;;5042326;28;20218;-77
2020/12/12 05:42:51;;;;;;;34.10;24.90;;;4.00;99.90;;;;;;5053029;28;20196;-77
2020/12/12 05:45:17;;;;;;;32.50;22.23;;;4.00;99.90;;;;;;5035411;28;20549;-77
2020/12/12 05:47:44;;;;;;;26.60;20.93;;;4.00;99.90;;;;;;5053045;28;20202;-77
2020/12/12 05:50:11;;;;;;;27.10;21.03;;;4.10;99.90;;;;;;5035640;28;20223;-78
2020/12/12 05:52:41;;;;;;;26.83;21.73;;;4.00;99.90;;;;;;5052912;28;20234;-77
2020/12/12 05:55:08;;;;;;;27.30;21.57;;;4.00;99.90;;;;;;5052840;28;20250;-78
2020/12/12 05:57:36;;;;;;;30.83;23.20;;;3.90;99.90;;;;;;5052313;28;20209;-77
2020/12/12 06:00:04;;;;;;;27.80;21.90;;;3.90;99.90;;;;;;5038595;28;20222;-76
2020/12/12 06:02:48;;;;;;;28.57;22.10;;;3.90;99.90;;;;;;5077458;28;20210;-78
2020/12/12 06:05:23;;;;;;;29.00;22.53;;;4.00;99.90;;;;;;5077856;28;20190;-78
2020/12/12 06:07:56;;;;;;;29.63;22.17;;;4.00;99.90;;;;;;5076892;28;20747;-78
2020/12/12 06:10:27;;;;;;;36.67;25.03;;;4.00;99.90;;;;;;5077457;28;20298;-78
2020/12/12 06:12:58;;;;;;;31.77;22.43;;;4.10;99.90;;;;;;5077843;28;20241;-77
2020/12/12 06:15:36;;;;;;;27.70;21.97;;;4.10;99.90;;;;;;5077540;28;20184;-77
2020/12/12 06:18:31;;;;;;;30.00;22.90;;;4.00;99.90;;;;;;5053244;28;20225;-78
2020/12/12 06:21:06;;;;;;;32.33;23.53;;;4.00;99.90;;;;;;5018580;28;20226;-78
2020/12/12 06:23:37;;;;;;;30.20;23.20;;;4.00;99.90;;;;;;5052750;28;20198;-78
2020/12/12 06:26:04;;;;;;;34.80;25.33;;;4.00;99.90;;;;;;5053514;28;20199;-77
2020/12/12 06:28:36;;;;;;;31.17;23.80;;;4.00;99.90;;;;;;5033043;28;20207;-77
2020/12/12 06:31:04;;;;;;;30.92;23.55;;;4.00;99.90;;;;;;5052460;28;20223;-77
2020/12/12 06:33:31;;;;;;;28.73;22.80;;;4.00;99.90;;;;;;5053192;28;20227;-77
2020/12/12 06:35:58;;;;;;;30.33;23.17;;;4.00;99.90;;;;;;5052666;28;20199;-77
2020/12/12 06:38:27;;;;;;;31.53;22.50;;;4.00;99.90;;;;;;5052247;28;20202;-77
2020/12/12 06:40:56;;;;;;;30.90;24.20;;;4.00;99.90;;;;;;5053736;28;20251;-78
2020/12/12 06:43:33;;;;;;;29.92;22.77;;;4.00;99.90;;;;;;5052951;28;20190;-78
2020/12/12 06:46:02;;;;;;;30.50;22.87;;;4.00;99.90;;;;;;5035206;28;20670;-78
2020/12/12 06:48:31;;;;;;;29.47;22.40;;;4.00;99.90;;;;;;5051890;28;20196;-77
2020/12/12 06:50:58;;;;;;;31.27;22.87;;;4.00;99.90;;;;;;5053322;28;20753;-77
2020/12/12 06:53:26;;;;;;;30.53;22.50;;;4.00;99.90;;;;;;5044099;28;20278;-78
2020/12/12 06:56:09;;;;;;;32.27;23.63;;;4.00;99.90;;;;;;5042506;28;20203;-77
2020/12/12 06:58:36;;;;;;;28.47;21.30;;;4.10;99.90;;;;;;5051606;28;20184;-78
2020/12/12 07:01:27;;;;;;;31.43;22.50;;;4.10;99.90;;;;;;5052115;28;20729;-77
2020/12/12 07:04:02;;;;;;;24.80;20.13;;;4.10;99.90;;;;;;5052641;28;20245;-77
2020/12/12 07:06:30;;;;;;;27.00;20.87;;;4.10;99.90;;;;;;5051659;28;20195;-78
2020/12/12 07:09:01;;;;;;;30.50;22.93;;;4.10;99.90;;;;;;5051554;28;20580;-77
2020/12/12 07:11:31;;;;;;;28.17;22.23;;;4.10;99.90;;;;;;5034329;28;20216;-76
2020/12/12 07:13:58;;;;;;;27.83;22.47;;;4.10;99.90;;;;;;5051192;28;20257;-78
2020/12/12 07:16:25;;;;;;;27.97;21.27;;;4.10;99.90;;;;;;5052168;28;20195;-77
2020/12/12 07:18:52;;;;;;;28.07;21.63;;;4.10;99.90;;;;;;5051754;28;20191;-77
2020/12/12 07:21:21;;;;;;;28.40;22.13;;;4.10;99.90;;;;;;5051997;28;20261;-77
2020/12/12 07:23:48;;;;;;;26.93;20.47;;;4.20;99.90;;;;;;5034574;28;20187;-78
2020/12/12 07:26:15;;;;;;;29.63;21.87;;;4.20;99.90;;;;;;5052268;28;20203;-76
2020/12/12 07:28:42;;;;;;;28.87;21.93;;;4.30;99.90;;;;;;5051033;28;20209;-78
2020/12/12 07:31:10;;;;;;;29.97;22.07;;;4.20;99.90;;;;;;5035402;28;20225;-78
2020/12/12 07:33:36;;;;;;;27.77;21.40;;;4.30;99.90;;;;;;5054200;28;20234;-77
2020/12/12 07:36:03;;;;;;;29.17;23.37;;;4.30;99.90;;;;;;5053784;28;20498;-77
2020/12/12 07:38:38;;;;;;;27.20;20.93;;;4.20;99.90;;;;;;5051974;28;20202;-77
2020/12/12 07:41:12;;;;;;;28.87;22.10;;;4.20;99.90;;;;;;5036327;28;20227;-77
2020/12/12 07:43:53;;;;;;;30.00;23.23;;;4.20;99.90;;;;;;5056394;28;20572;-77
2020/12/12 07:46:19;;;;;;;30.92;22.40;;;4.20;99.90;;;;;;5059020;28;20199;-77
2020/12/12 07:48:58;;;;;;;28.50;21.73;;;4.20;99.90;;;;;;5054685;28;20216;-77
2020/12/12 07:51:24;;;;;;;30.43;22.63;;;4.20;99.90;;;;;;5032864;28;20258;-78
2020/12/12 07:53:51;;;;;;;26.93;21.70;;;4.30;99.90;;;;;;5031958;28;20563;-78
2020/12/12 07:56:20;;;;;;;28.53;21.43;;;4.20;99.90;;;;;;5031882;28;20207;-78
2020/12/12 07:58:55;;;;;;;27.47;20.20;;;4.30;99.90;;;;;;5031746;28;20330;-78
2020/12/12 08:01:23;;;;;;;28.77;21.60;;;4.30;99.90;;;;;;5031191;28;20700;-78
2020/12/12 08:03:50;;;;;;;29.40;23.40;;;4.40;99.90;;;;;;5032733;28;20192;-78
2020/12/12 08:06:17;;;;;;;26.10;19.90;;;4.40;99.90;;;;;;5031380;28;20211;-78
2020/12/12 08:08:55;;;;;;;30.23;21.93;;;4.40;99.90;;;;;;5030161;28;20220;-78
2020/12/12 08:11:21;;;;;;;31.70;23.00;;;4.40;99.90;;;;;;5032244;28;20625;-77
2020/12/12 08:13:48;;;;;;;25.77;20.30;;;4.40;99.90;;;;;;5031396;28;20226;-77
2020/12/12 08:16:19;;;;;;;24.97;20.03;;;4.50;99.90;;;;;;5031541;28;20226;-78
2020/12/12 08:18:46;;;;;;;23.70;19.60;;;4.50;99.90;;;;;;5030182;28;20250;-78
2020/12/12 08:21:14;;;;;;;27.40;21.07;;;4.50;99.90;;;;;;5030673;28;20257;-77
2020/12/12 08:23:41;;;;;;;26.17;21.27;;;4.50;99.90;;;;;;5030695;28;20306;-78
2020/12/12 08:26:12;;;;;;;25.17;19.40;;;4.50;99.90;;;;;;5029694;28;20230;-77
2020/12/12 08:28:39;;;;;;;24.73;19.87;;;4.60;99.90;;;;;;5029822;28;20196;-77
2020/12/12 08:31:10;;;;;;;28.23;20.43;;;4.50;99.90;;;;;;5029908;28;20254;-77
2020/12/12 08:33:37;;;;;;;23.37;19.80;;;4.50;99.90;;;;;;5031968;28;20220;-78
2020/12/12 08:36:14;;;;;;;26.53;20.67;;;4.50;99.90;;;;;;5031251;28;20562;-77
2020/12/12 08:38:42;;;;;;;23.73;20.63;;;4.60;99.90;;;;;;5030546;28;20200;-78
2020/12/12 08:41:13;;;;;;;23.40;20.20;;;4.60;99.90;;;;;;5032002;28;20222;-78
2020/12/12 08:43:43;;;;;;;24.70;20.17;;;4.60;99.90;;;;;;5032047;28;20196;-78
2020/12/12 08:46:12;;;;;;;25.70;20.73;;;4.60;99.90;;;;;;5030721;28;20210;-78
2020/12/12 08:48:39;;;;;;;24.90;20.70;;;4.60;99.90;;;;;;5027514;28;20199;-76
2020/12/12 08:51:07;;;;;;;24.40;19.80;;;4.60;99.90;;;;;;5051374;28;20219;-77
2020/12/12 08:53:36;;;;;;;25.35;19.75;;;4.70;99.90;;;;;;5054922;28;20743;-77
2020/12/12 08:56:08;;;;;;;28.97;21.70;;;4.90;99.90;;;;;;5055756;28;20202;-77
2020/12/12 08:58:43;;;;;;;27.97;21.43;;;4.70;99.90;;;;;;5054773;28;20191;-78
2020/12/12 09:01:12;;;;;;;28.42;20.88;;;4.70;99.90;;;;;;5021360;28;20837;-79
2020/12/12 09:03:52;;;;;;;33.00;21.35;;;4.80;99.90;;;;;;5037200;28;20614;-78
2020/12/12 09:06:19;;;;;;;23.60;19.27;;;4.80;99.90;;;;;;5054820;28;20667;-78
2020/12/12 09:08:45;;;;;;;27.63;20.67;;;4.80;99.90;;;;;;5036273;28;20191;-78
2020/12/12 09:11:13;;;;;;;27.00;21.23;;;4.80;99.90;;;;;;5036868;28;20215;-78
2020/12/12 09:13:40;;;;;;;27.17;19.47;;;4.80;99.90;;;;;;5037444;28;20241;-78
2020/12/12 09:16:08;;;;;;;30.43;20.57;;;4.90;99.90;;;;;;5037477;28;20207;-78
2020/12/12 09:18:43;;;;;;;23.77;19.38;;;4.90;99.90;;;;;;5054017;28;20203;-78
2020/12/12 09:21:10;;;;;;;26.27;20.63;;;4.90;99.90;;;;;;5054449;28;20214;-78
2020/12/12 09:23:37;;;;;;;28.47;20.63;;;4.90;99.90;;;;;;5036347;28;20184;-78
2020/12/12 09:26:04;;;;;;;25.40;21.20;;;4.90;99.90;;;;;;5054699;28;20876;-77
2020/12/12 09:28:30;;;;;;;27.73;21.20;;;4.90;99.90;;;;;;5054619;28;20199;-78
2020/12/12 09:30:58;;;;;;;28.33;21.43;;;5.00;99.90;;;;;;5055140;28;20219;-77
2020/12/12 09:33:24;;;;;;;33.53;21.10;;;5.10;99.90;;;;;;5054957;28;20648;-78
2020/12/12 09:35:51;;;;;;;29.30;22.10;;;5.10;99.90;;;;;;5057529;28;20302;-78
2020/12/12 09:38:17;;;;;;;26.00;20.40;;;5.00;99.90;;;;;;5038415;28;20203;-77
2020/12/12 09:40:46;;;;;;;30.00;21.27;;;5.10;99.90;;;;;;5053758;28;20223;-78
2020/12/12 09:43:14;;;;;;;30.40;20.73;;;5.10;99.90;;;;;;5019802;28;20194;-78
2020/12/12 09:45:41;;;;;;;28.97;21.90;;;5.20;99.90;;;;;;5035853;28;20219;-78
2020/12/12 09:48:09;;;;;;;25.97;20.27;;;5.20;99.90;;;;;;5052665;28;20234;-77
2020/12/12 09:50:36;;;;;;;26.77;21.23;;;5.20;99.90;;;;;;5086190;28;20270;-79
2020/12/12 09:53:04;;;;;;;26.53;19.93;;;5.20;99.90;;;;;;5078826;28;20309;-78
2020/12/12 09:55:30;;;;;;;26.90;20.83;;;5.20;99.90;;;;;;5064153;28;20202;-77
2020/12/12 09:57:58;;;;;;;26.60;19.90;;;5.20;99.90;;;;;;5053800;28;20195;-78
2020/12/12 10:00:24;;;;;;;24.45;19.55;;;5.20;99.90;;;;;;5053513;28;20223;-78
2020/12/12 10:02:51;;;;;;;29.13;22.07;;;5.20;99.90;;;;;;5052951;28;20294;-77
2020/12/12 10:05:19;;;;;;;26.40;19.23;;;5.20;99.90;;;;;;5053008;28;20286;-77
2020/12/12 10:07:46;;;;;;;24.20;19.20;;;5.30;99.90;;;;;;5052965;28;20203;-77
2020/12/12 10:10:12;;;;;;;25.93;20.60;;;5.30;99.90;;;;;;5058473;28;20242;-80
2020/12/12 10:12:39;;;;;;;24.13;19.67;;;5.30;99.90;;;;;;5061220;28;20310;-79
2020/12/12 10:15:06;;;;;;;20.77;16.77;;;5.30;99.90;;;;;;5054905;28;20261;-79
2020/12/12 10:17:32;;;;;;;24.20;19.42;;;5.40;99.90;;;;;;5036789;28;20191;-78
2020/12/12 10:19:59;;;;;;;28.17;19.60;;;5.50;99.90;;;;;;5070930;28;20203;-79
2020/12/12 10:22:26;;;;;;;24.53;19.37;;;5.60;99.90;;;;;;5058260;28;20207;-80
2020/12/12 10:24:53;;;;;;;26.73;21.27;;;5.60;99.90;;;;;;5057654;28;20248;-80
2020/12/12 10:27:20;;;;;;;26.10;20.93;;;5.60;99.90;;;;;;5057299;28;20192;-80
2020/12/12 10:29:46;;;;;;;28.77;21.83;;;5.60;99.90;;;;;;5057072;28;20184;-80
2020/12/12 10:32:13;;;;;;;45.87;32.17;;;5.70;99.90;;;;;;5057488;28;20187;-81
2020/12/12 10:34:39;;;;;;;24.43;20.50;;;5.80;99.90;;;;;;5041452;28;20236;-79
2020/12/12 10:37:05;;;;;;;29.40;21.00;;;6.00;99.90;;;;;;5034746;28;20206;-78
2020/12/12 10:39:35;;;;;;;32.70;21.47;;;6.10;99.90;;;;;;5033570;28;20192;-78
2020/12/12 10:42:01;;;;;;;25.43;20.27;;;6.10;99.90;;;;;;5035761;28;20555;-79
2020/12/12 10:44:28;;;;;;;23.60;19.80;;;6.10;99.90;;;;;;5034753;28;20191;-79
2020/12/12 10:46:54;;;;;;;23.00;18.77;;;6.10;99.90;;;;;;5036676;28;20226;-80
2020/12/12 10:49:21;;;;;;;24.17;20.63;;;6.20;99.90;;;;;;5057379;28;20229;-81
2020/12/12 10:51:49;;;;;;;27.65;22.65;;;6.30;99.90;;;;;;5056985;28;20253;-81
2020/12/12 10:54:16;;;;;;;25.07;20.63;;;6.30;99.90;;;;;;5057807;28;20222;-82
2020/12/12 10:56:45;;;;;;;22.93;19.50;;;6.30;99.90;;;;;;5057139;28;20206;-80
2020/12/12 10:59:12;;;;;;;34.63;20.90;;;6.40;99.90;;;;;;5056425;28;20274;-81
2020/12/12 11:01:39;;;;;;;23.67;18.97;;;6.30;99.90;;;;;;5058470;28;20230;-79
2020/12/12 11:04:06;;;;;;;23.43;18.73;;;6.40;99.90;;;;;;5041690;28;20192;-80
2020/12/12 11:06:33;;;;;;;23.92;19.10;;;6.60;99.90;;;;;;5059022;28;20243;-81
2020/12/12 11:08:59;;;;;;;21.65;17.45;;;6.40;99.90;;;;;;5058736;28;20203;-82
2020/12/12 11:11:26;;;;;;;23.87;18.37;;;6.40;99.90;;;;;;5040743;28;20730;-81
2020/12/12 11:14:06;;;;;;;21.20;18.13;;;6.50;99.90;;;;;;5041867;28;20637;-80
2020/12/12 11:16:33;;;;;;;21.57;18.87;;;6.50;99.90;;;;;;5057759;28;20198;-80
2020/12/12 11:19:00;;;;;;;22.73;19.30;;;6.60;99.90;;;;;;5055984;28;20207;-80
2020/12/12 11:21:26;;;;;;;24.02;18.92;;;6.70;99.90;;;;;;5056928;28;20625;-80
2020/12/12 11:23:53;;;;;;;24.30;19.70;;;6.70;99.90;;;;;;5056513;28;20195;-83
2020/12/12 11:26:19;;;;;;;23.55;17.52;;;6.80;99.90;;;;;;5057452;28;20202;-81
2020/12/12 11:28:46;;;;;;;21.85;18.15;;;6.80;99.90;;;;;;5057389;28;20199;-79
2020/12/12 11:31:16;;;;;;;23.00;17.97;;;6.80;99.90;;;;;;5040340;28;20606;-79
2020/12/12 11:33:45;;;;;;;17.45;15.57;;;6.80;99.90;;;;;;5057193;28;20524;-79
2020/12/12 11:36:28;;;;;;;20.70;16.95;;;6.90;99.90;;;;;;5057835;28;20231;-78
2020/12/12 11:38:58;;;;;;;21.70;17.03;;;6.80;99.90;;;;;;5057594;28;20206;-79
2020/12/12 11:41:42;;;;;;;20.60;17.07;;;6.80;99.90;;;;;;5062758;28;20216;-79
2020/12/12 11:46:53;;;;;;;21.43;15.57;;;6.90;99.90;;;;;;5054329;28;20211;-78
2020/12/12 11:49:20;;;;;;;19.27;15.40;;;7.00;99.90;;;;;;5049351;28;20211;-78
2020/12/12 11:51:47;;;;;;;20.40;16.67;;;7.00;99.90;;;;;;5022514;28;20227;-79
2020/12/12 11:54:13;;;;;;;18.87;15.70;;;7.00;99.90;;;;;;5052497;28;20215;-80
2020/12/12 11:56:40;;;;;;;19.60;15.30;;;7.00;99.90;;;;;;5052734;28;20207;-78
2020/12/12 11:59:06;;;;;;;17.23;13.57;;;7.00;99.90;;;;;;5049619;28;20475;-78
2020/12/12 12:01:33;;;;;;;16.15;13.75;;;7.10;99.90;;;;;;5033980;28;20211;-79
2020/12/12 12:04:00;;;;;;;19.80;14.90;;;7.10;99.90;;;;;;5055510;28;20209;-79
2020/12/12 12:06:27;;;;;;;17.83;14.33;;;7.10;99.90;;;;;;5054757;28;20254;-78
2020/12/12 12:09:13;;;;;;;15.83;13.17;;;7.00;99.90;;;;;;5034330;28;20199;-78
2020/12/12 12:11:40;;;;;;;20.10;14.57;;;7.10;99.90;;;;;;5053051;28;20219;-79
2020/12/12 12:14:08;;;;;;;15.57;12.98;;;7.10;99.90;;;;;;5036021;28;20252;-78
2020/12/12 12:16:36;;;;;;;19.03;14.13;;;7.10;99.90;;;;;;5052151;28;20205;-79
2020/12/12 12:19:06;;;;;;;18.58;13.93;;;7.10;99.90;;;;;;5034687;28;20279;-80
2020/12/12 12:21:34;;;;;;;15.80;12.30;;;7.10;99.90;;;;;;5033944;28;20219;-78
2020/12/12 12:24:01;;;;;;;16.57;12.27;;;7.10;99.90;;;;;;5052070;28;20202;-79
2020/12/12 12:26:27;;;;;;;16.50;13.17;;;7.10;99.90;;;;;;5050950;28;20742;-79
2020/12/12 12:28:54;;;;;;;14.70;12.00;;;7.10;99.90;;;;;;5032297;28;20685;-78
2020/12/12 12:31:21;;;;;;;18.10;13.88;;;7.20;99.90;;;;;;5050876;28;20298;-78
2020/12/12 12:33:48;;;;;;;14.95;12.07;;;7.20;99.90;;;;;;5052467;28;20227;-80
2020/12/12 12:36:16;;;;;;;17.48;13.68;;;7.20;99.90;;;;;;5054731;28;20200;-79
2020/12/12 12:38:43;;;;;;;17.85;15.93;;;7.20;99.90;;;;;;5052031;28;20472;-78
2020/12/12 12:41:09;;;;;;;13.77;11.38;;;7.20;99.90;;;;;;5049832;28;20221;-78
2020/12/12 12:43:36;;;;;;;17.60;14.97;;;7.20;99.90;;;;;;5032990;28;20196;-78